Terminal Aerodrome Forecast
Issued by NWS

Home | Current Version | Previous Version | Text Only | Print | Product List | Glossary On
Versions: 1 2 3 4 5 6 7 8 9 10 11 12 13 14 15 16 17 18 19 20 21 22 23 24 25 26 27 28 29 30 31 32 33 34
000
FTUS43 KLOT 281100
TAFORD
TAF
KORD 281140Z 2812/2918 19007KT 6SM -SN BR BKN040 OVC060
     FM281330 18009KT P6SM SCT040 OVC070
     FM281700 17012G19KT P6SM SCT040 OVC060
     FM290100 19011KT P6SM BKN090
     FM290600 19007KT 5SM BR SCT010 BKN200
     FM291400 20010G18KT P6SM SCT050 BKN200=

USA.gov is the U.S. government's official web portal to all federal, state and local government web resources and services.